SBCP/CAW METAR and TAF weather

Enter ICAO airport designator
Station Type Date Time Source
SBCP METAR 2020/01/18 21:00 UTC NOAA

SBCP 182100Z 18012KT 9999 FEW030 BKN080 25/20 Q1017


Station Type Date Time Source
SBCP Decoded METAR 2020/01/18 21:00 UTC NOAA

Campos, Brazil (SBCP) 21-45S 041-20W 11M
Jan 18, 2020 - 04:00 PM EST / 2020.01.18 2100 UTC
Wind: from the S (180 degrees) at 14 MPH (12 KT):0
Visibility: greater than 7 mile(s):0
Sky conditions: mostly cloudy
Temperature: 77 F (25 C)
Dew Point: 68 F (20 C)
Relative Humidity: 73%
Pressure (altimeter): 30.03 in. Hg (1017 hPa)
ob: SBCP 182100Z 18012KT 9999 FEW030 BKN080 25/20 Q1017
cycle: 21

Station Type Date Time Source
SBCP TAF 2020/01/19 00:00 UTC NOAA

TAF SBCP 182100Z 1900/1912 21010KT 7000 BKN015 TN22/1908Z TX26/1912Z
RMK PGU

Example: see airport list